sensor_id;sensor_type;location;lat;lon;timestamp;P1;durP1;ratioP1;P2;durP2;ratioP2
52730;SDS011;38624;53.242;6.974;2022-12-29T00:01:54;4.93;;;3.85;;
52730;SDS011;38624;53.242;6.974;2022-12-29T00:04:20;5.38;;;4.20;;
52730;SDS011;38624;53.242;6.974;2022-12-29T00:06:46;4.93;;;3.30;;
52730;SDS011;38624;53.242;6.974;2022-12-29T00:09:12;5.32;;;3.42;;
52730;SDS011;38624;53.242;6.974;2022-12-29T00:11:38;5.72;;;3.40;;
52730;SDS011;38624;53.242;6.974;2022-12-29T00:14:04;5.40;;;3.70;;
52730;SDS011;38624;53.242;6.974;2022-12-29T00:16:48;4.95;;;3.72;;
52730;SDS011;38624;53.242;6.974;2022-12-29T00:19:14;5.43;;;4.20;;
52730;SDS011;38624;53.242;6.974;2022-12-29T00:21:58;5.75;;;3.50;;
52730;SDS011;38624;53.242;6.974;2022-12-29T00:24:43;4.60;;;3.53;;
52730;SDS011;38624;53.242;6.974;2022-12-29T00:27:18;5.85;;;4.05;;
52730;SDS011;38624;53.242;6.974;2022-12-29T00:30:04;7.18;;;4.50;;
52730;SDS011;38624;53.242;6.974;2022-12-29T00:32:53;6.22;;;4.45;;
52730;SDS011;38624;53.242;6.974;2022-12-29T00:36:39;6.70;;;3.55;;
52730;SDS011;38624;53.242;6.974;2022-12-29T00:38:42;4.00;;;3.25;;
52730;SDS011;38624;53.242;6.974;2022-12-29T00:41:30;8.55;;;4.13;;
52730;SDS011;38624;53.242;6.974;2022-12-29T00:44:14;6.57;;;4.57;;
52730;SDS011;38624;53.242;6.974;2022-12-29T00:46:41;4.47;;;3.53;;
52730;SDS011;38624;53.242;6.974;2022-12-29T00:51:54;3.90;;;3.30;;
52730;SDS011;38624;53.242;6.974;2022-12-29T00:54:32;5.15;;;3.35;;
52730;SDS011;38624;53.242;6.974;2022-12-29T00:56:59;5.35;;;4.20;;
52730;SDS011;38624;53.242;6.974;2022-12-29T00:59:24;4.72;;;4.22;;
52730;SDS011;38624;53.242;6.974;2022-12-29T01:01:51;3.80;;;3.00;;
52730;SDS011;38624;53.242;6.974;2022-12-29T01:04:18;6.18;;;4.60;;
52730;SDS011;38624;53.242;6.974;2022-12-29T01:06:44;5.22;;;3.95;;
52730;SDS011;38624;53.242;6.974;2022-12-29T01:09:10;6.60;;;4.22;;
52730;SDS011;38624;53.242;6.974;2022-12-29T01:11:54;3.72;;;2.95;;
52730;SDS011;38624;53.242;6.974;2022-12-29T01:14:21;4.93;;;3.42;;
52730;SDS011;38624;53.242;6.974;2022-12-29T01:16:48;4.50;;;3.30;;
52730;SDS011;38624;53.242;6.974;2022-12-29T01:19:14;5.00;;;3.65;;
52730;SDS011;38624;53.242;6.974;2022-12-29T01:21:41;4.63;;;3.60;;
52730;SDS011;38624;53.242;6.974;2022-12-29T01:24:07;5.38;;;3.58;;
52730;SDS011;38624;53.242;6.974;2022-12-29T01:26:33;5.60;;;3.60;;
52730;SDS011;38624;53.242;6.974;2022-12-29T01:28:59;4.50;;;3.83;;
52730;SDS011;38624;53.242;6.974;2022-12-29T01:31:25;4.18;;;3.45;;
52730;SDS011;38624;53.242;6.974;2022-12-29T01:33:50;4.43;;;3.72;;
52730;SDS011;38624;53.242;6.974;2022-12-29T01:36:17;4.20;;;3.28;;
52730;SDS011;38624;53.242;6.974;2022-12-29T01:38:43;4.82;;;3.60;;
52730;SDS011;38624;53.242;6.974;2022-12-29T01:41:10;3.90;;;2.85;;
52730;SDS011;38624;53.242;6.974;2022-12-29T01:43:41;5.75;;;3.78;;
52730;SDS011;38624;53.242;6.974;2022-12-29T01:46:15;6.15;;;4.15;;
52730;SDS011;38624;53.242;6.974;2022-12-29T01:48:45;5.82;;;3.55;;
52730;SDS011;38624;53.242;6.974;2022-12-29T01:51:15;5.03;;;3.58;;
52730;SDS011;38624;53.242;6.974;2022-12-29T01:53:41;6.30;;;3.40;;
52730;SDS011;38624;53.242;6.974;2022-12-29T01:58:38;5.82;;;3.40;;
52730;SDS011;38624;53.242;6.974;2022-12-29T02:01:07;5.50;;;3.35;;
52730;SDS011;38624;53.242;6.974;2022-12-29T02:03:32;6.72;;;4.40;;
52730;SDS011;38624;53.242;6.974;2022-12-29T02:08:52;10.80;;;3.53;;
52730;SDS011;38624;53.242;6.974;2022-12-29T02:11:20;4.88;;;3.63;;
52730;SDS011;38624;53.242;6.974;2022-12-29T02:13:49;9.27;;;3.95;;
52730;SDS011;38624;53.242;6.974;2022-12-29T02:16:18;4.18;;;3.47;;
52730;SDS011;38624;53.242;6.974;2022-12-29T02:22:02;5.30;;;3.88;;
52730;SDS011;38624;53.242;6.974;2022-12-29T02:27:58;5.30;;;3.53;;
52730;SDS011;38624;53.242;6.974;2022-12-29T02:44:44;4.40;;;3.20;;
52730;SDS011;38624;53.242;6.974;2022-12-29T02:47:17;4.88;;;3.00;;
52730;SDS011;38624;53.242;6.974;2022-12-29T02:49:57;4.68;;;3.05;;
52730;SDS011;38624;53.242;6.974;2022-12-29T02:52:44;3.42;;;2.28;;
52730;SDS011;38624;53.242;6.974;2022-12-29T02:55:16;6.25;;;3.65;;
52730;SDS011;38624;53.242;6.974;2022-12-29T02:57:42;5.90;;;3.40;;
52730;SDS011;38624;53.242;6.974;2022-12-29T03:00:09;6.18;;;3.45;;
52730;SDS011;38624;53.242;6.974;2022-12-29T03:02:46;6.80;;;3.25;;
52730;SDS011;38624;53.242;6.974;2022-12-29T03:06:14;3.83;;;2.67;;
52730;SDS011;38624;53.242;6.974;2022-12-29T03:11:12;3.38;;;2.30;;
52730;SDS011;38624;53.242;6.974;2022-12-29T03:14:01;4.75;;;2.40;;
52730;SDS011;38624;53.242;6.974;2022-12-29T03:16:59;6.00;;;2.85;;
52730;SDS011;38624;53.242;6.974;2022-12-29T03:19:36;3.53;;;2.30;;
52730;SDS011;38624;53.242;6.974;2022-12-29T03:22:06;2.72;;;1.88;;
52730;SDS011;38624;53.242;6.974;2022-12-29T03:24:56;3.65;;;2.47;;
52730;SDS011;38624;53.242;6.974;2022-12-29T03:27:44;3.30;;;1.90;;
52730;SDS011;38624;53.242;6.974;2022-12-29T03:30:13;2.97;;;2.08;;
52730;SDS011;38624;53.242;6.974;2022-12-29T03:32:59;3.17;;;1.90;;
52730;SDS011;38624;53.242;6.974;2022-12-29T03:35:28;2.90;;;2.30;;
52730;SDS011;38624;53.242;6.974;2022-12-29T03:40:45;1.73;;;1.50;;
52730;SDS011;38624;53.242;6.974;2022-12-29T03:43:14;2.65;;;1.85;;
52730;SDS011;38624;53.242;6.974;2022-12-29T03:45:40;3.83;;;2.17;;
52730;SDS011;38624;53.242;6.974;2022-12-29T03:48:06;2.30;;;1.60;;
52730;SDS011;38624;53.242;6.974;2022-12-29T03:50:32;2.22;;;1.52;;
52730;SDS011;38624;53.242;6.974;2022-12-29T03:52:58;2.90;;;1.73;;
52730;SDS011;38624;53.242;6.974;2022-12-29T03:55:23;2.15;;;1.35;;
52730;SDS011;38624;53.242;6.974;2022-12-29T03:57:49;5.25;;;1.60;;
52730;SDS011;38624;53.242;6.974;2022-12-29T04:00:15;2.40;;;1.70;;
52730;SDS011;38624;53.242;6.974;2022-12-29T04:02:41;3.35;;;1.98;;
52730;SDS011;38624;53.242;6.974;2022-12-29T04:05:07;3.37;;;1.80;;
52730;SDS011;38624;53.242;6.974;2022-12-29T04:07:33;1.83;;;1.52;;
52730;SDS011;38624;53.242;6.974;2022-12-29T04:09:58;2.13;;;1.73;;
52730;SDS011;38624;53.242;6.974;2022-12-29T04:12:24;4.35;;;1.83;;
52730;SDS011;38624;53.242;6.974;2022-12-29T04:14:50;3.10;;;1.83;;
52730;SDS011;38624;53.242;6.974;2022-12-29T04:17:15;2.63;;;1.48;;
52730;SDS011;38624;53.242;6.974;2022-12-29T04:19:41;3.13;;;1.60;;
52730;SDS011;38624;53.242;6.974;2022-12-29T04:22:06;1.90;;;1.40;;
52730;SDS011;38624;53.242;6.974;2022-12-29T04:24:32;6.97;;;1.80;;
52730;SDS011;38624;53.242;6.974;2022-12-29T04:26:58;3.25;;;1.77;;
52730;SDS011;38624;53.242;6.974;2022-12-29T04:29:23;2.28;;;1.50;;
52730;SDS011;38624;53.242;6.974;2022-12-29T04:31:49;2.30;;;1.40;;
52730;SDS011;38624;53.242;6.974;2022-12-29T04:34:15;2.80;;;1.60;;
52730;SDS011;38624;53.242;6.974;2022-12-29T04:36:40;5.25;;;1.50;;
52730;SDS011;38624;53.242;6.974;2022-12-29T04:39:06;3.03;;;1.67;;
52730;SDS011;38624;53.242;6.974;2022-12-29T04:41:32;2.40;;;1.20;;
52730;SDS011;38624;53.242;6.974;2022-12-29T04:43:58;2.10;;;1.13;;
52730;SDS011;38624;53.242;6.974;2022-12-29T04:46:24;4.15;;;1.10;;
52730;SDS011;38624;53.242;6.974;2022-12-29T04:48:50;2.30;;;1.08;;
52730;SDS011;38624;53.242;6.974;2022-12-29T04:51:15;3.75;;;1.20;;
52730;SDS011;38624;53.242;6.974;2022-12-29T04:53:41;4.90;;;1.13;;
52730;SDS011;38624;53.242;6.974;2022-12-29T04:56:07;2.83;;;1.10;;
52730;SDS011;38624;53.242;6.974;2022-12-29T05:01:01;3.15;;;1.20;;
52730;SDS011;38624;53.242;6.974;2022-12-29T05:03:26;2.40;;;1.15;;
52730;SDS011;38624;53.242;6.974;2022-12-29T05:05:53;2.47;;;1.10;;
52730;SDS011;38624;53.242;6.974;2022-12-29T05:08:20;3.83;;;1.10;;
52730;SDS011;38624;53.242;6.974;2022-12-29T05:10:46;4.30;;;1.27;;
52730;SDS011;38624;53.242;6.974;2022-12-29T05:13:11;3.60;;;1.30;;
52730;SDS011;38624;53.242;6.974;2022-12-29T05:15:37;10.77;;;1.48;;
52730;SDS011;38624;53.242;6.974;2022-12-29T05:18:03;3.95;;;1.42;;
52730;SDS011;38624;53.242;6.974;2022-12-29T05:20:29;2.30;;;1.23;;
52730;SDS011;38624;53.242;6.974;2022-12-29T05:22:54;4.25;;;1.00;;
52730;SDS011;38624;53.242;6.974;2022-12-29T05:25:20;5.05;;;1.20;;
52730;SDS011;38624;53.242;6.974;2022-12-29T05:27:46;6.45;;;1.55;;
52730;SDS011;38624;53.242;6.974;2022-12-29T05:30:11;3.65;;;1.08;;
52730;SDS011;38624;53.242;6.974;2022-12-29T05:32:37;3.53;;;1.15;;
52730;SDS011;38624;53.242;6.974;2022-12-29T05:35:03;5.60;;;1.58;;
52730;SDS011;38624;53.242;6.974;2022-12-29T05:37:29;3.63;;;1.30;;
52730;SDS011;38624;53.242;6.974;2022-12-29T05:39:55;8.00;;;1.48;;
52730;SDS011;38624;53.242;6.974;2022-12-29T05:42:21;5.80;;;1.02;;
52730;SDS011;38624;53.242;6.974;2022-12-29T05:44:46;3.35;;;1.50;;
52730;SDS011;38624;53.242;6.974;2022-12-29T05:47:15;4.75;;;1.42;;
52730;SDS011;38624;53.242;6.974;2022-12-29T05:49:40;5.88;;;1.60;;
52730;SDS011;38624;53.242;6.974;2022-12-29T05:52:06;7.22;;;1.50;;
52730;SDS011;38624;53.242;6.974;2022-12-29T05:54:31;5.93;;;1.50;;
52730;SDS011;38624;53.242;6.974;2022-12-29T05:56:57;5.25;;;1.55;;
52730;SDS011;38624;53.242;6.974;2022-12-29T05:59:23;2.25;;;0.80;;
52730;SDS011;38624;53.242;6.974;2022-12-29T06:01:48;4.10;;;1.40;;
52730;SDS011;38624;53.242;6.974;2022-12-29T06:04:14;5.70;;;1.60;;
52730;SDS011;38624;53.242;6.974;2022-12-29T06:06:40;5.05;;;1.33;;
52730;SDS011;38624;53.242;6.974;2022-12-29T06:09:05;4.95;;;1.58;;
52730;SDS011;38624;53.242;6.974;2022-12-29T06:11:31;8.55;;;1.60;;
52730;SDS011;38624;53.242;6.974;2022-12-29T06:13:57;5.75;;;1.45;;
52730;SDS011;38624;53.242;6.974;2022-12-29T06:16:22;6.38;;;1.60;;
52730;SDS011;38624;53.242;6.974;2022-12-29T06:18:48;8.85;;;1.70;;
52730;SDS011;38624;53.242;6.974;2022-12-29T06:21:14;3.35;;;1.40;;
52730;SDS011;38624;53.242;6.974;2022-12-29T06:23:39;8.73;;;1.60;;
52730;SDS011;38624;53.242;6.974;2022-12-29T06:26:05;5.05;;;1.25;;
52730;SDS011;38624;53.242;6.974;2022-12-29T06:28:31;3.03;;;1.25;;
52730;SDS011;38624;53.242;6.974;2022-12-29T06:30:56;6.47;;;1.55;;
52730;SDS011;38624;53.242;6.974;2022-12-29T06:33:22;3.33;;;1.05;;
52730;SDS011;38624;53.242;6.974;2022-12-29T06:35:48;5.70;;;1.17;;
52730;SDS011;38624;53.242;6.974;2022-12-29T06:38:13;8.18;;;1.60;;
52730;SDS011;38624;53.242;6.974;2022-12-29T06:40:39;4.65;;;1.10;;
52730;SDS011;38624;53.242;6.974;2022-12-29T06:43:07;9.82;;;1.63;;
52730;SDS011;38624;53.242;6.974;2022-12-29T06:45:32;7.68;;;1.40;;
52730;SDS011;38624;53.242;6.974;2022-12-29T06:47:58;8.38;;;1.45;;
52730;SDS011;38624;53.242;6.974;2022-12-29T06:50:24;8.98;;;1.80;;
52730;SDS011;38624;53.242;6.974;2022-12-29T06:52:49;7.63;;;1.48;;
52730;SDS011;38624;53.242;6.974;2022-12-29T06:55:15;4.57;;;1.45;;
52730;SDS011;38624;53.242;6.974;2022-12-29T06:57:41;7.85;;;1.73;;
52730;SDS011;38624;53.242;6.974;2022-12-29T07:00:07;12.38;;;1.65;;
52730;SDS011;38624;53.242;6.974;2022-12-29T07:02:33;7.72;;;1.35;;
52730;SDS011;38624;53.242;6.974;2022-12-29T07:04:59;14.02;;;1.83;;
52730;SDS011;38624;53.242;6.974;2022-12-29T07:07:24;7.72;;;1.55;;
52730;SDS011;38624;53.242;6.974;2022-12-29T07:09:50;17.80;;;2.05;;
52730;SDS011;38624;53.242;6.974;2022-12-29T07:12:16;7.82;;;2.05;;
52730;SDS011;38624;53.242;6.974;2022-12-29T07:14:41;10.68;;;1.50;;
52730;SDS011;38624;53.242;6.974;2022-12-29T07:17:07;10.07;;;2.28;;
52730;SDS011;38624;53.242;6.974;2022-12-29T07:19:33;8.38;;;2.00;;
52730;SDS011;38624;53.242;6.974;2022-12-29T07:21:58;6.60;;;1.33;;
52730;SDS011;38624;53.242;6.974;2022-12-29T07:24:24;9.55;;;2.75;;
52730;SDS011;38624;53.242;6.974;2022-12-29T07:26:53;10.52;;;1.65;;
52730;SDS011;38624;53.242;6.974;2022-12-29T07:29:18;5.50;;;1.40;;
52730;SDS011;38624;53.242;6.974;2022-12-29T07:31:44;6.93;;;1.30;;
52730;SDS011;38624;53.242;6.974;2022-12-29T07:34:10;12.93;;;2.25;;
52730;SDS011;38624;53.242;6.974;2022-12-29T07:36:35;3.95;;;1.10;;
52730;SDS011;38624;53.242;6.974;2022-12-29T07:39:01;6.47;;;1.65;;
52730;SDS011;38624;53.242;6.974;2022-12-29T07:41:28;6.65;;;1.60;;
52730;SDS011;38624;53.242;6.974;2022-12-29T07:43:53;12.70;;;2.28;;
52730;SDS011;38624;53.242;6.974;2022-12-29T07:46:19;6.90;;;1.42;;
52730;SDS011;38624;53.242;6.974;2022-12-29T07:48:45;6.53;;;1.55;;
52730;SDS011;38624;53.242;6.974;2022-12-29T07:51:10;7.28;;;1.60;;
52730;SDS011;38624;53.242;6.974;2022-12-29T07:53:36;6.82;;;1.50;;
52730;SDS011;38624;53.242;6.974;2022-12-29T07:56:02;13.68;;;1.98;;
52730;SDS011;38624;53.242;6.974;2022-12-29T07:58:28;5.47;;;1.45;;
52730;SDS011;38624;53.242;6.974;2022-12-29T08:00:54;7.10;;;1.60;;
52730;SDS011;38624;53.242;6.974;2022-12-29T08:03:20;7.63;;;1.70;;
52730;SDS011;38624;53.242;6.974;2022-12-29T08:05:46;8.30;;;1.88;;
52730;SDS011;38624;53.242;6.974;2022-12-29T08:08:12;10.68;;;1.85;;
52730;SDS011;38624;53.242;6.974;2022-12-29T08:10:37;6.32;;;1.90;;
52730;SDS011;38624;53.242;6.974;2022-12-29T08:13:03;11.90;;;2.22;;
52730;SDS011;38624;53.242;6.974;2022-12-29T08:15:29;9.45;;;1.77;;
52730;SDS011;38624;53.242;6.974;2022-12-29T08:17:54;6.70;;;1.55;;
52730;SDS011;38624;53.242;6.974;2022-12-29T08:20:20;5.43;;;1.70;;
52730;SDS011;38624;53.242;6.974;2022-12-29T08:22:46;3.85;;;1.35;;
52730;SDS011;38624;53.242;6.974;2022-12-29T08:25:11;11.35;;;1.80;;
52730;SDS011;38624;53.242;6.974;2022-12-29T08:27:37;6.38;;;1.48;;
52730;SDS011;38624;53.242;6.974;2022-12-29T08:30:03;4.82;;;1.27;;
52730;SDS011;38624;53.242;6.974;2022-12-29T08:32:29;13.13;;;1.57;;
52730;SDS011;38624;53.242;6.974;2022-12-29T08:34:55;7.82;;;1.42;;
52730;SDS011;38624;53.242;6.974;2022-12-29T08:37:20;6.25;;;1.83;;
52730;SDS011;38624;53.242;6.974;2022-12-29T08:39:47;8.93;;;1.80;;
52730;SDS011;38624;53.242;6.974;2022-12-29T08:42:13;9.90;;;2.05;;
52730;SDS011;38624;53.242;6.974;2022-12-29T08:44:38;10.00;;;1.48;;
52730;SDS011;38624;53.242;6.974;2022-12-29T08:47:04;10.52;;;1.83;;
52730;SDS011;38624;53.242;6.974;2022-12-29T08:49:30;11.35;;;2.10;;
52730;SDS011;38624;53.242;6.974;2022-12-29T08:51:56;7.00;;;1.55;;
52730;SDS011;38624;53.242;6.974;2022-12-29T08:54:21;9.27;;;1.70;;
52730;SDS011;38624;53.242;6.974;2022-12-29T08:56:47;9.90;;;2.10;;
52730;SDS011;38624;53.242;6.974;2022-12-29T08:59:13;12.43;;;1.83;;
52730;SDS011;38624;53.242;6.974;2022-12-29T09:01:38;10.70;;;2.20;;
52730;SDS011;38624;53.242;6.974;2022-12-29T09:04:05;17.30;;;2.30;;
52730;SDS011;38624;53.242;6.974;2022-12-29T09:06:32;9.10;;;2.05;;
52730;SDS011;38624;53.242;6.974;2022-12-29T09:08:57;13.48;;;1.80;;
52730;SDS011;38624;53.242;6.974;2022-12-29T09:11:23;8.93;;;2.22;;
52730;SDS011;38624;53.242;6.974;2022-12-29T09:13:50;9.70;;;2.63;;
52730;SDS011;38624;53.242;6.974;2022-12-29T09:18:44;11.15;;;1.88;;
52730;SDS011;38624;53.242;6.974;2022-12-29T09:21:10;14.23;;;2.10;;
52730;SDS011;38624;53.242;6.974;2022-12-29T09:23:37;8.35;;;2.50;;
52730;SDS011;38624;53.242;6.974;2022-12-29T09:26:03;9.03;;;2.17;;
52730;SDS011;38624;53.242;6.974;2022-12-29T09:28:29;10.95;;;2.17;;
52730;SDS011;38624;53.242;6.974;2022-12-29T09:30:56;12.95;;;2.33;;
52730;SDS011;38624;53.242;6.974;2022-12-29T09:33:22;13.15;;;2.33;;
52730;SDS011;38624;53.242;6.974;2022-12-29T09:35:53;17.17;;;2.30;;
52730;SDS011;38624;53.242;6.974;2022-12-29T09:38:20;11.70;;;1.90;;
52730;SDS011;38624;53.242;6.974;2022-12-29T09:40:54;15.73;;;1.92;;
52730;SDS011;38624;53.242;6.974;2022-12-29T09:43:59;11.93;;;2.47;;
52730;SDS011;38624;53.242;6.974;2022-12-29T09:46:37;8.45;;;2.10;;
52730;SDS011;38624;53.242;6.974;2022-12-29T09:51:47;9.23;;;1.85;;
52730;SDS011;38624;53.242;6.974;2022-12-29T09:56:41;6.30;;;1.60;;
52730;SDS011;38624;53.242;6.974;2022-12-29T09:59:12;8.57;;;1.90;;
52730;SDS011;38624;53.242;6.974;2022-12-29T10:01:57;11.63;;;2.67;;
52730;SDS011;38624;53.242;6.974;2022-12-29T10:04:36;7.72;;;1.77;;
52730;SDS011;38624;53.242;6.974;2022-12-29T10:07:10;6.25;;;1.30;;
52730;SDS011;38624;53.242;6.974;2022-12-29T10:09:48;8.00;;;2.33;;
52730;SDS011;38624;53.242;6.974;2022-12-29T10:15:12;14.13;;;1.95;;
52730;SDS011;38624;53.242;6.974;2022-12-29T10:18:03;6.70;;;1.90;;
52730;SDS011;38624;53.242;6.974;2022-12-29T10:20:54;13.30;;;2.08;;
52730;SDS011;38624;53.242;6.974;2022-12-29T10:23:35;8.02;;;1.83;;
52730;SDS011;38624;53.242;6.974;2022-12-29T10:26:09;12.07;;;2.40;;
52730;SDS011;38624;53.242;6.974;2022-12-29T10:28:43;12.05;;;2.30;;
52730;SDS011;38624;53.242;6.974;2022-12-29T10:31:22;15.90;;;2.30;;
52730;SDS011;38624;53.242;6.974;2022-12-29T10:33:50;7.43;;;1.92;;
52730;SDS011;38624;53.242;6.974;2022-12-29T10:39:13;9.60;;;1.65;;
52730;SDS011;38624;53.242;6.974;2022-12-29T10:42:03;6.95;;;1.90;;
52730;SDS011;38624;53.242;6.974;2022-12-29T10:44:39;10.60;;;1.63;;
52730;SDS011;38624;53.242;6.974;2022-12-29T10:47:26;10.00;;;1.77;;
52730;SDS011;38624;53.242;6.974;2022-12-29T10:49:53;13.20;;;1.77;;
52730;SDS011;38624;53.242;6.974;2022-12-29T10:52:19;8.13;;;1.60;;
52730;SDS011;38624;53.242;6.974;2022-12-29T11:00:08;9.27;;;1.58;;
52730;SDS011;38624;53.242;6.974;2022-12-29T11:08:18;13.15;;;1.98;;
52730;SDS011;38624;53.242;6.974;2022-12-29T11:10:47;8.02;;;1.58;;
52730;SDS011;38624;53.242;6.974;2022-12-29T11:13:25;10.73;;;2.85;;
52730;SDS011;38624;53.242;6.974;2022-12-29T11:15:53;12.55;;;2.60;;
52730;SDS011;38624;53.242;6.974;2022-12-29T11:21:05;7.47;;;1.67;;
52730;SDS011;38624;53.242;6.974;2022-12-29T11:23:54;17.98;;;2.58;;
52730;SDS011;38624;53.242;6.974;2022-12-29T11:26:23;13.40;;;3.17;;
52730;SDS011;38624;53.242;6.974;2022-12-29T11:31:41;8.50;;;2.03;;
52730;SDS011;38624;53.242;6.974;2022-12-29T11:36:45;11.77;;;2.50;;
52730;SDS011;38624;53.242;6.974;2022-12-29T11:39:26;12.70;;;2.92;;
52730;SDS011;38624;53.242;6.974;2022-12-29T11:42:02;8.85;;;2.25;;
52730;SDS011;38624;53.242;6.974;2022-12-29T11:44:30;22.90;;;3.65;;
52730;SDS011;38624;53.242;6.974;2022-12-29T11:47:02;14.38;;;2.80;;
52730;SDS011;38624;53.242;6.974;2022-12-29T11:49:29;12.80;;;2.25;;
52730;SDS011;38624;53.242;6.974;2022-12-29T11:51:54;13.15;;;2.63;;
52730;SDS011;38624;53.242;6.974;2022-12-29T11:56:50;15.40;;;2.50;;
52730;SDS011;38624;53.242;6.974;2022-12-29T12:01:52;10.45;;;2.13;;
52730;SDS011;38624;53.242;6.974;2022-12-29T12:06:52;10.63;;;2.38;;
52730;SDS011;38624;53.242;6.974;2022-12-29T12:09:54;14.10;;;3.25;;
52730;SDS011;38624;53.242;6.974;2022-12-29T12:14:58;12.02;;;2.67;;
52730;SDS011;38624;53.242;6.974;2022-12-29T12:20:19;19.17;;;3.80;;
52730;SDS011;38624;53.242;6.974;2022-12-29T12:25:54;11.90;;;2.35;;
52730;SDS011;38624;53.242;6.974;2022-12-29T12:28:42;12.40;;;2.38;;
52730;SDS011;38624;53.242;6.974;2022-12-29T12:34:04;11.00;;;1.92;;
52730;SDS011;38624;53.242;6.974;2022-12-29T12:42:40;18.98;;;2.83;;
52730;SDS011;38624;53.242;6.974;2022-12-29T12:50:51;14.93;;;2.97;;
52730;SDS011;38624;53.242;6.974;2022-12-29T12:56:25;8.60;;;2.08;;
52730;SDS011;38624;53.242;6.974;2022-12-29T13:13:16;14.48;;;2.03;;
52730;SDS011;38624;53.242;6.974;2022-12-29T13:24:40;6.20;;;1.70;;
52730;SDS011;38624;53.242;6.974;2022-12-29T13:27:21;8.30;;;2.00;;
52730;SDS011;38624;53.242;6.974;2022-12-29T13:35:45;15.43;;;2.30;;
52730;SDS011;38624;53.242;6.974;2022-12-29T13:38:24;10.35;;;1.70;;
52730;SDS011;38624;53.242;6.974;2022-12-29T13:41:10;9.55;;;1.80;;
52730;SDS011;38624;53.242;6.974;2022-12-29T13:43:39;9.65;;;1.85;;
52730;SDS011;38624;53.242;6.974;2022-12-29T13:46:12;16.13;;;2.25;;
52730;SDS011;38624;53.242;6.974;2022-12-29T13:48:44;11.73;;;1.73;;
52730;SDS011;38624;53.242;6.974;2022-12-29T13:51:14;10.73;;;1.85;;
52730;SDS011;38624;53.242;6.974;2022-12-29T13:53:45;10.50;;;1.95;;
52730;SDS011;38624;53.242;6.974;2022-12-29T14:02:17;8.52;;;2.42;;
52730;SDS011;38624;53.242;6.974;2022-12-29T14:05:03;11.95;;;1.90;;
52730;SDS011;38624;53.242;6.974;2022-12-29T14:07:36;15.60;;;1.80;;
52730;SDS011;38624;53.242;6.974;2022-12-29T14:10:03;10.73;;;1.60;;
52730;SDS011;38624;53.242;6.974;2022-12-29T14:12:31;13.13;;;1.75;;
52730;SDS011;38624;53.242;6.974;2022-12-29T14:15:06;10.82;;;1.90;;
52730;SDS011;38624;53.242;6.974;2022-12-29T14:17:45;9.48;;;1.95;;
52730;SDS011;38624;53.242;6.974;2022-12-29T14:20:28;12.70;;;2.10;;
52730;SDS011;38624;53.242;6.974;2022-12-29T14:23:14;11.93;;;2.17;;
52730;SDS011;38624;53.242;6.974;2022-12-29T14:28:35;7.72;;;1.75;;
52730;SDS011;38624;53.242;6.974;2022-12-29T14:36:39;14.48;;;2.22;;
52730;SDS011;38624;53.242;6.974;2022-12-29T14:42:10;9.63;;;1.83;;
52730;SDS011;38624;53.242;6.974;2022-12-29T14:44:48;12.05;;;2.10;;
52730;SDS011;38624;53.242;6.974;2022-12-29T14:50:25;14.80;;;2.72;;
52730;SDS011;38624;53.242;6.974;2022-12-29T14:53:10;6.95;;;1.55;;
52730;SDS011;38624;53.242;6.974;2022-12-29T14:56:13;10.98;;;1.60;;
52730;SDS011;38624;53.242;6.974;2022-12-29T15:03:57;8.80;;;1.98;;
52730;SDS011;38624;53.242;6.974;2022-12-29T15:06:28;10.95;;;2.40;;
52730;SDS011;38624;53.242;6.974;2022-12-29T15:09:04;13.35;;;2.60;;
52730;SDS011;38624;53.242;6.974;2022-12-29T15:17:00;12.32;;;2.20;;
52730;SDS011;38624;53.242;6.974;2022-12-29T15:19:27;19.83;;;3.45;;
52730;SDS011;38624;53.242;6.974;2022-12-29T15:21:54;16.73;;;2.47;;
52730;SDS011;38624;53.242;6.974;2022-12-29T15:26:48;7.88;;;1.77;;
52730;SDS011;38624;53.242;6.974;2022-12-29T15:34:41;12.32;;;1.90;;
52730;SDS011;38624;53.242;6.974;2022-12-29T15:37:07;9.82;;;1.70;;
52730;SDS011;38624;53.242;6.974;2022-12-29T15:39:34;12.30;;;2.40;;
52730;SDS011;38624;53.242;6.974;2022-12-29T15:42:15;17.83;;;2.20;;
52730;SDS011;38624;53.242;6.974;2022-12-29T15:45:06;8.23;;;2.30;;
52730;SDS011;38624;53.242;6.974;2022-12-29T15:47:36;15.75;;;1.75;;
52730;SDS011;38624;53.242;6.974;2022-12-29T15:50:06;7.90;;;1.80;;
52730;SDS011;38624;53.242;6.974;2022-12-29T15:52:45;11.75;;;1.92;;
52730;SDS011;38624;53.242;6.974;2022-12-29T15:58:17;10.25;;;2.03;;
52730;SDS011;38624;53.242;6.974;2022-12-29T16:00:47;6.60;;;1.63;;
52730;SDS011;38624;53.242;6.974;2022-12-29T16:03:15;10.32;;;2.38;;
52730;SDS011;38624;53.242;6.974;2022-12-29T16:05:42;10.13;;;1.70;;
52730;SDS011;38624;53.242;6.974;2022-12-29T16:10:51;12.27;;;2.40;;
52730;SDS011;38624;53.242;6.974;2022-12-29T16:13:19;12.85;;;1.95;;
52730;SDS011;38624;53.242;6.974;2022-12-29T16:16:13;12.65;;;2.45;;
52730;SDS011;38624;53.242;6.974;2022-12-29T16:18:41;12.02;;;2.15;;
52730;SDS011;38624;53.242;6.974;2022-12-29T16:21:13;11.05;;;1.83;;
52730;SDS011;38624;53.242;6.974;2022-12-29T16:23:50;11.20;;;2.25;;
52730;SDS011;38624;53.242;6.974;2022-12-29T16:26:19;12.32;;;2.13;;
52730;SDS011;38624;53.242;6.974;2022-12-29T16:28:50;9.15;;;2.13;;
52730;SDS011;38624;53.242;6.974;2022-12-29T16:31:21;9.95;;;2.25;;
52730;SDS011;38624;53.242;6.974;2022-12-29T16:33:50;12.98;;;2.38;;
52730;SDS011;38624;53.242;6.974;2022-12-29T16:36:31;12.20;;;2.33;;
52730;SDS011;38624;53.242;6.974;2022-12-29T16:41:53;10.80;;;2.45;;
52730;SDS011;38624;53.242;6.974;2022-12-29T16:44:21;17.00;;;2.75;;
52730;SDS011;38624;53.242;6.974;2022-12-29T16:49:36;10.77;;;2.38;;
52730;SDS011;38624;53.242;6.974;2022-12-29T16:52:11;18.45;;;3.00;;
52730;SDS011;38624;53.242;6.974;2022-12-29T16:54:57;17.98;;;2.88;;
52730;SDS011;38624;53.242;6.974;2022-12-29T16:57:29;24.75;;;3.03;;
52730;SDS011;38624;53.242;6.974;2022-12-29T17:00:03;19.42;;;2.45;;
52730;SDS011;38624;53.242;6.974;2022-12-29T17:02:32;4.43;;;1.20;;
52730;SDS011;38624;53.242;6.974;2022-12-29T17:04:59;4.40;;;1.25;;
52730;SDS011;38624;53.242;6.974;2022-12-29T17:07:26;6.28;;;1.20;;
52730;SDS011;38624;53.242;6.974;2022-12-29T17:09:52;7.80;;;1.20;;
52730;SDS011;38624;53.242;6.974;2022-12-29T17:12:23;5.03;;;1.30;;
52730;SDS011;38624;53.242;6.974;2022-12-29T17:17:37;6.03;;;1.42;;
52730;SDS011;38624;53.242;6.974;2022-12-29T17:20:08;8.57;;;1.20;;
52730;SDS011;38624;53.242;6.974;2022-12-29T17:22:46;3.92;;;1.10;;
52730;SDS011;38624;53.242;6.974;2022-12-29T17:25:14;3.03;;;1.27;;
52730;SDS011;38624;53.242;6.974;2022-12-29T17:30:20;4.55;;;1.50;;
52730;SDS011;38624;53.242;6.974;2022-12-29T17:32:49;4.05;;;1.30;;
52730;SDS011;38624;53.242;6.974;2022-12-29T17:35:18;4.00;;;1.17;;
52730;SDS011;38624;53.242;6.974;2022-12-29T17:37:46;4.15;;;1.20;;
52730;SDS011;38624;53.242;6.974;2022-12-29T17:40:16;6.40;;;1.38;;
52730;SDS011;38624;53.242;6.974;2022-12-29T17:42:54;4.15;;;1.30;;
52730;SDS011;38624;53.242;6.974;2022-12-29T17:45:26;6.30;;;1.60;;
52730;SDS011;38624;53.242;6.974;2022-12-29T17:47:56;9.80;;;2.30;;
52730;SDS011;38624;53.242;6.974;2022-12-29T17:50:24;12.60;;;2.20;;
52730;SDS011;38624;53.242;6.974;2022-12-29T17:52:51;11.35;;;2.65;;
52730;SDS011;38624;53.242;6.974;2022-12-29T17:55:21;12.30;;;2.58;;
52730;SDS011;38624;53.242;6.974;2022-12-29T17:57:48;12.18;;;2.75;;
52730;SDS011;38624;53.242;6.974;2022-12-29T18:00:15;10.20;;;1.87;;
52730;SDS011;38624;53.242;6.974;2022-12-29T18:02:45;10.85;;;2.45;;
52730;SDS011;38624;53.242;6.974;2022-12-29T18:05:33;15.70;;;2.60;;
52730;SDS011;38624;53.242;6.974;2022-12-29T18:07:58;9.90;;;2.40;;
52730;SDS011;38624;53.242;6.974;2022-12-29T18:10:27;15.13;;;2.42;;